sensor_id;sensor_type;location;lat;lon;timestamp;P1;durP1;ratioP1;P2;durP2;ratioP2
20454;SDS011;10386;54.314;10.022;2024-03-08T00:00:06;18.93;;;8.33;;
20454;SDS011;10386;54.314;10.022;2024-03-08T00:02:39;21.23;;;8.67;;
20454;SDS011;10386;54.314;10.022;2024-03-08T00:05:06;21.03;;;8.57;;
20454;SDS011;10386;54.314;10.022;2024-03-08T00:07:35;25.47;;;8.50;;
20454;SDS011;10386;54.314;10.022;2024-03-08T00:10:06;27.60;;;9.90;;
20454;SDS011;10386;54.314;10.022;2024-03-08T00:15:15;18.37;;;8.87;;
20454;SDS011;10386;54.314;10.022;2024-03-08T00:17:45;25.93;;;9.07;;
20454;SDS011;10386;54.314;10.022;2024-03-08T00:20:14;23.80;;;8.83;;
20454;SDS011;10386;54.314;10.022;2024-03-08T00:22:45;21.93;;;9.00;;
20454;SDS011;10386;54.314;10.022;2024-03-08T00:25:12;17.77;;;7.93;;
20454;SDS011;10386;54.314;10.022;2024-03-08T00:27:39;24.90;;;8.70;;
20454;SDS011;10386;54.314;10.022;2024-03-08T00:30:07;24.33;;;9.43;;
20454;SDS011;10386;54.314;10.022;2024-03-08T00:32:35;22.53;;;8.70;;
20454;SDS011;10386;54.314;10.022;2024-03-08T00:35:02;19.57;;;8.50;;
20454;SDS011;10386;54.314;10.022;2024-03-08T00:37:30;19.30;;;9.00;;
20454;SDS011;10386;54.314;10.022;2024-03-08T00:39:57;20.30;;;8.60;;
20454;SDS011;10386;54.314;10.022;2024-03-08T00:42:24;28.77;;;8.67;;
20454;SDS011;10386;54.314;10.022;2024-03-08T00:44:51;18.33;;;7.57;;
20454;SDS011;10386;54.314;10.022;2024-03-08T00:47:18;15.43;;;7.50;;
20454;SDS011;10386;54.314;10.022;2024-03-08T00:49:45;20.97;;;8.50;;
20454;SDS011;10386;54.314;10.022;2024-03-08T00:52:13;18.47;;;8.23;;
20454;SDS011;10386;54.314;10.022;2024-03-08T00:54:41;17.47;;;7.97;;
20454;SDS011;10386;54.314;10.022;2024-03-08T00:57:10;21.10;;;8.10;;
20454;SDS011;10386;54.314;10.022;2024-03-08T00:59:38;20.03;;;8.30;;
20454;SDS011;10386;54.314;10.022;2024-03-08T01:02:05;17.67;;;7.67;;
20454;SDS011;10386;54.314;10.022;2024-03-08T01:04:32;15.77;;;8.13;;
20454;SDS011;10386;54.314;10.022;2024-03-08T01:06:59;20.67;;;8.87;;
20454;SDS011;10386;54.314;10.022;2024-03-08T01:09:26;17.40;;;8.47;;
20454;SDS011;10386;54.314;10.022;2024-03-08T01:11:54;26.50;;;8.50;;
20454;SDS011;10386;54.314;10.022;2024-03-08T01:14:25;20.53;;;9.43;;
20454;SDS011;10386;54.314;10.022;2024-03-08T01:16:56;20.60;;;8.50;;
20454;SDS011;10386;54.314;10.022;2024-03-08T01:19:23;18.93;;;8.00;;
20454;SDS011;10386;54.314;10.022;2024-03-08T01:21:51;22.70;;;9.40;;
20454;SDS011;10386;54.314;10.022;2024-03-08T01:24:17;18.37;;;9.10;;
20454;SDS011;10386;54.314;10.022;2024-03-08T01:26:44;21.87;;;8.50;;
20454;SDS011;10386;54.314;10.022;2024-03-08T01:29:11;19.83;;;8.67;;
20454;SDS011;10386;54.314;10.022;2024-03-08T01:31:38;19.57;;;8.40;;
20454;SDS011;10386;54.314;10.022;2024-03-08T01:34:04;17.93;;;8.77;;
20454;SDS011;10386;54.314;10.022;2024-03-08T01:36:31;19.43;;;7.50;;
20454;SDS011;10386;54.314;10.022;2024-03-08T01:38:58;19.17;;;8.17;;
20454;SDS011;10386;54.314;10.022;2024-03-08T01:41:25;19.77;;;8.77;;
20454;SDS011;10386;54.314;10.022;2024-03-08T01:43:56;19.77;;;8.30;;
20454;SDS011;10386;54.314;10.022;2024-03-08T01:46:23;17.50;;;7.93;;
20454;SDS011;10386;54.314;10.022;2024-03-08T01:48:50;20.87;;;8.50;;
20454;SDS011;10386;54.314;10.022;2024-03-08T01:51:18;22.97;;;8.20;;
20454;SDS011;10386;54.314;10.022;2024-03-08T01:53:46;22.67;;;9.27;;
20454;SDS011;10386;54.314;10.022;2024-03-08T01:56:14;19.20;;;8.43;;
20454;SDS011;10386;54.314;10.022;2024-03-08T01:58:41;24.20;;;9.47;;
20454;SDS011;10386;54.314;10.022;2024-03-08T02:01:13;17.97;;;8.20;;
20454;SDS011;10386;54.314;10.022;2024-03-08T02:03:43;21.50;;;8.77;;
20454;SDS011;10386;54.314;10.022;2024-03-08T02:06:11;19.27;;;8.40;;
20454;SDS011;10386;54.314;10.022;2024-03-08T02:08:44;20.37;;;8.93;;
20454;SDS011;10386;54.314;10.022;2024-03-08T02:11:13;20.00;;;9.27;;
20454;SDS011;10386;54.314;10.022;2024-03-08T02:13:41;27.40;;;10.00;;
20454;SDS011;10386;54.314;10.022;2024-03-08T02:16:08;27.83;;;10.27;;
20454;SDS011;10386;54.314;10.022;2024-03-08T02:18:35;21.37;;;9.47;;
20454;SDS011;10386;54.314;10.022;2024-03-08T02:21:04;23.23;;;10.17;;
20454;SDS011;10386;54.314;10.022;2024-03-08T02:23:32;23.60;;;10.50;;
20454;SDS011;10386;54.314;10.022;2024-03-08T02:26:00;23.23;;;10.47;;
20454;SDS011;10386;54.314;10.022;2024-03-08T02:28:27;26.17;;;10.30;;
20454;SDS011;10386;54.314;10.022;2024-03-08T02:30:55;26.23;;;9.87;;
20454;SDS011;10386;54.314;10.022;2024-03-08T02:33:24;26.00;;;10.67;;
20454;SDS011;10386;54.314;10.022;2024-03-08T02:35:53;31.47;;;11.23;;
20454;SDS011;10386;54.314;10.022;2024-03-08T02:38:20;31.00;;;11.23;;
20454;SDS011;10386;54.314;10.022;2024-03-08T02:40:49;34.97;;;11.43;;
20454;SDS011;10386;54.314;10.022;2024-03-08T02:43:18;30.33;;;11.70;;
20454;SDS011;10386;54.314;10.022;2024-03-08T02:45:46;27.37;;;11.20;;
20454;SDS011;10386;54.314;10.022;2024-03-08T02:48:14;24.50;;;10.60;;
20454;SDS011;10386;54.314;10.022;2024-03-08T02:50:43;28.43;;;11.63;;
20454;SDS011;10386;54.314;10.022;2024-03-08T02:53:13;29.77;;;11.97;;
20454;SDS011;10386;54.314;10.022;2024-03-08T02:55:40;25.13;;;11.37;;
20454;SDS011;10386;54.314;10.022;2024-03-08T02:58:08;29.97;;;11.40;;
20454;SDS011;10386;54.314;10.022;2024-03-08T03:00:37;34.10;;;12.37;;
20454;SDS011;10386;54.314;10.022;2024-03-08T03:03:07;31.87;;;11.27;;
20454;SDS011;10386;54.314;10.022;2024-03-08T03:05:34;36.33;;;12.77;;
20454;SDS011;10386;54.314;10.022;2024-03-08T03:08:02;33.13;;;13.43;;
20454;SDS011;10386;54.314;10.022;2024-03-08T03:10:36;29.27;;;12.10;;
20454;SDS011;10386;54.314;10.022;2024-03-08T03:13:03;31.97;;;12.73;;
20454;SDS011;10386;54.314;10.022;2024-03-08T03:15:33;34.43;;;13.80;;
20454;SDS011;10386;54.314;10.022;2024-03-08T03:18:00;38.10;;;12.77;;
20454;SDS011;10386;54.314;10.022;2024-03-08T03:20:28;34.23;;;13.53;;
20454;SDS011;10386;54.314;10.022;2024-03-08T03:22:59;37.67;;;13.97;;
20454;SDS011;10386;54.314;10.022;2024-03-08T03:25:30;37.07;;;14.37;;
20454;SDS011;10386;54.314;10.022;2024-03-08T03:28:01;41.30;;;15.07;;
20454;SDS011;10386;54.314;10.022;2024-03-08T03:30:29;34.87;;;14.23;;
20454;SDS011;10386;54.314;10.022;2024-03-08T03:32:59;39.63;;;15.83;;
20454;SDS011;10386;54.314;10.022;2024-03-08T03:35:30;41.10;;;15.33;;
20454;SDS011;10386;54.314;10.022;2024-03-08T03:37:57;38.17;;;15.17;;
20454;SDS011;10386;54.314;10.022;2024-03-08T03:40:39;38.60;;;14.20;;
20454;SDS011;10386;54.314;10.022;2024-03-08T03:43:07;38.90;;;14.93;;
20454;SDS011;10386;54.314;10.022;2024-03-08T03:45:34;46.93;;;16.17;;
20454;SDS011;10386;54.314;10.022;2024-03-08T03:48:04;41.57;;;16.20;;
20454;SDS011;10386;54.314;10.022;2024-03-08T03:50:33;46.77;;;17.47;;
20454;SDS011;10386;54.314;10.022;2024-03-08T03:53:04;41.07;;;16.27;;
20454;SDS011;10386;54.314;10.022;2024-03-08T03:55:34;39.93;;;14.80;;
20454;SDS011;10386;54.314;10.022;2024-03-08T03:58:06;44.87;;;18.17;;
20454;SDS011;10386;54.314;10.022;2024-03-08T04:00:33;47.90;;;17.63;;
20454;SDS011;10386;54.314;10.022;2024-03-08T04:03:00;49.60;;;16.53;;
20454;SDS011;10386;54.314;10.022;2024-03-08T04:05:27;44.60;;;16.40;;
20454;SDS011;10386;54.314;10.022;2024-03-08T04:07:54;47.30;;;17.20;;
20454;SDS011;10386;54.314;10.022;2024-03-08T04:10:21;43.63;;;17.57;;
20454;SDS011;10386;54.314;10.022;2024-03-08T04:12:48;43.27;;;17.07;;
20454;SDS011;10386;54.314;10.022;2024-03-08T04:15:15;42.60;;;16.67;;
20454;SDS011;10386;54.314;10.022;2024-03-08T04:17:42;46.73;;;17.93;;
20454;SDS011;10386;54.314;10.022;2024-03-08T04:20:09;40.53;;;17.40;;
20454;SDS011;10386;54.314;10.022;2024-03-08T04:22:37;49.10;;;17.17;;
20454;SDS011;10386;54.314;10.022;2024-03-08T04:25:06;49.97;;;19.07;;
20454;SDS011;10386;54.314;10.022;2024-03-08T04:27:33;46.43;;;17.43;;
20454;SDS011;10386;54.314;10.022;2024-03-08T04:30:01;46.67;;;18.40;;
20454;SDS011;10386;54.314;10.022;2024-03-08T04:32:34;48.27;;;18.57;;
20454;SDS011;10386;54.314;10.022;2024-03-08T04:35:01;44.70;;;18.87;;
20454;SDS011;10386;54.314;10.022;2024-03-08T04:37:30;47.30;;;18.10;;
20454;SDS011;10386;54.314;10.022;2024-03-08T04:39:58;45.87;;;18.93;;
20454;SDS011;10386;54.314;10.022;2024-03-08T04:42:25;47.83;;;18.70;;
20454;SDS011;10386;54.314;10.022;2024-03-08T04:44:55;42.97;;;18.27;;
20454;SDS011;10386;54.314;10.022;2024-03-08T04:47:22;40.77;;;18.10;;
20454;SDS011;10386;54.314;10.022;2024-03-08T04:49:49;42.03;;;17.63;;
20454;SDS011;10386;54.314;10.022;2024-03-08T04:52:17;44.17;;;18.10;;
20454;SDS011;10386;54.314;10.022;2024-03-08T04:54:43;43.57;;;18.37;;
20454;SDS011;10386;54.314;10.022;2024-03-08T04:57:13;42.83;;;17.43;;
20454;SDS011;10386;54.314;10.022;2024-03-08T04:59:40;37.97;;;17.40;;
20454;SDS011;10386;54.314;10.022;2024-03-08T05:02:07;43.73;;;17.07;;
20454;SDS011;10386;54.314;10.022;2024-03-08T05:04:34;46.40;;;18.07;;
20454;SDS011;10386;54.314;10.022;2024-03-08T05:07:01;44.23;;;18.10;;
20454;SDS011;10386;54.314;10.022;2024-03-08T05:09:31;41.27;;;17.77;;
20454;SDS011;10386;54.314;10.022;2024-03-08T05:11:59;45.57;;;16.87;;
20454;SDS011;10386;54.314;10.022;2024-03-08T05:14:26;42.33;;;17.83;;
20454;SDS011;10386;54.314;10.022;2024-03-08T05:16:53;47.30;;;18.40;;
20454;SDS011;10386;54.314;10.022;2024-03-08T05:19:20;48.57;;;18.20;;
20454;SDS011;10386;54.314;10.022;2024-03-08T05:21:47;45.00;;;17.43;;
20454;SDS011;10386;54.314;10.022;2024-03-08T05:24:15;39.00;;;16.73;;
20454;SDS011;10386;54.314;10.022;2024-03-08T05:26:44;42.93;;;18.20;;
20454;SDS011;10386;54.314;10.022;2024-03-08T05:29:12;41.53;;;17.70;;
20454;SDS011;10386;54.314;10.022;2024-03-08T05:31:50;37.07;;;16.57;;
20454;SDS011;10386;54.314;10.022;2024-03-08T05:34:21;39.73;;;16.27;;
20454;SDS011;10386;54.314;10.022;2024-03-08T05:36:48;44.00;;;16.97;;
20454;SDS011;10386;54.314;10.022;2024-03-08T05:39:21;41.17;;;17.33;;
20454;SDS011;10386;54.314;10.022;2024-03-08T05:41:48;41.03;;;16.53;;
20454;SDS011;10386;54.314;10.022;2024-03-08T05:44:15;37.00;;;15.27;;
20454;SDS011;10386;54.314;10.022;2024-03-08T05:46:45;41.13;;;15.87;;
20454;SDS011;10386;54.314;10.022;2024-03-08T05:49:13;37.47;;;15.23;;
20454;SDS011;10386;54.314;10.022;2024-03-08T05:51:40;40.40;;;16.07;;
20454;SDS011;10386;54.314;10.022;2024-03-08T05:54:08;35.37;;;15.27;;
20454;SDS011;10386;54.314;10.022;2024-03-08T05:56:42;39.53;;;16.80;;
20454;SDS011;10386;54.314;10.022;2024-03-08T05:59:11;32.00;;;14.37;;
20454;SDS011;10386;54.314;10.022;2024-03-08T06:01:38;38.53;;;16.40;;
20454;SDS011;10386;54.314;10.022;2024-03-08T06:04:07;39.00;;;16.17;;
20454;SDS011;10386;54.314;10.022;2024-03-08T06:06:34;35.53;;;15.77;;
20454;SDS011;10386;54.314;10.022;2024-03-08T06:09:04;37.00;;;16.83;;
20454;SDS011;10386;54.314;10.022;2024-03-08T06:11:40;34.77;;;15.40;;
20454;SDS011;10386;54.314;10.022;2024-03-08T06:14:09;43.00;;;16.90;;
20454;SDS011;10386;54.314;10.022;2024-03-08T06:16:36;38.60;;;15.70;;
20454;SDS011;10386;54.314;10.022;2024-03-08T06:19:03;32.90;;;15.03;;
20454;SDS011;10386;54.314;10.022;2024-03-08T06:21:30;35.20;;;15.53;;
20454;SDS011;10386;54.314;10.022;2024-03-08T06:23:59;43.13;;;15.67;;
20454;SDS011;10386;54.314;10.022;2024-03-08T06:26:26;37.50;;;15.67;;
20454;SDS011;10386;54.314;10.022;2024-03-08T06:28:56;38.53;;;15.70;;
20454;SDS011;10386;54.314;10.022;2024-03-08T06:31:24;40.97;;;16.40;;
20454;SDS011;10386;54.314;10.022;2024-03-08T06:33:51;44.17;;;16.90;;
20454;SDS011;10386;54.314;10.022;2024-03-08T06:36:22;36.67;;;15.80;;
20454;SDS011;10386;54.314;10.022;2024-03-08T06:38:49;39.13;;;15.50;;
20454;SDS011;10386;54.314;10.022;2024-03-08T06:41:17;41.90;;;16.13;;
20454;SDS011;10386;54.314;10.022;2024-03-08T06:43:44;43.60;;;15.47;;
20454;SDS011;10386;54.314;10.022;2024-03-08T06:46:16;39.23;;;16.43;;
20454;SDS011;10386;54.314;10.022;2024-03-08T06:48:44;38.43;;;15.17;;
20454;SDS011;10386;54.314;10.022;2024-03-08T06:51:12;44.63;;;17.60;;
20454;SDS011;10386;54.314;10.022;2024-03-08T06:53:41;48.50;;;21.00;;
20454;SDS011;10386;54.314;10.022;2024-03-08T06:56:08;43.50;;;18.23;;
20454;SDS011;10386;54.314;10.022;2024-03-08T06:58:35;44.93;;;17.30;;
20454;SDS011;10386;54.314;10.022;2024-03-08T07:01:02;39.90;;;15.90;;
20454;SDS011;10386;54.314;10.022;2024-03-08T07:03:31;38.40;;;17.27;;
20454;SDS011;10386;54.314;10.022;2024-03-08T07:05:59;35.60;;;16.50;;
20454;SDS011;10386;54.314;10.022;2024-03-08T07:08:28;39.60;;;17.50;;
20454;SDS011;10386;54.314;10.022;2024-03-08T07:10:55;41.20;;;17.73;;
20454;SDS011;10386;54.314;10.022;2024-03-08T07:13:22;38.87;;;17.27;;
20454;SDS011;10386;54.314;10.022;2024-03-08T07:15:48;39.27;;;16.43;;
20454;SDS011;10386;54.314;10.022;2024-03-08T07:18:15;43.80;;;17.50;;
20454;SDS011;10386;54.314;10.022;2024-03-08T07:20:42;38.00;;;17.07;;
20454;SDS011;10386;54.314;10.022;2024-03-08T07:23:10;45.47;;;17.23;;
20454;SDS011;10386;54.314;10.022;2024-03-08T07:25:37;38.53;;;16.23;;
20454;SDS011;10386;54.314;10.022;2024-03-08T07:28:05;38.27;;;16.63;;
20454;SDS011;10386;54.314;10.022;2024-03-08T07:30:37;43.97;;;17.40;;
20454;SDS011;10386;54.314;10.022;2024-03-08T07:33:10;36.33;;;16.07;;
20454;SDS011;10386;54.314;10.022;2024-03-08T07:35:41;41.47;;;17.00;;
20454;SDS011;10386;54.314;10.022;2024-03-08T07:38:12;36.67;;;16.73;;
20454;SDS011;10386;54.314;10.022;2024-03-08T07:40:39;41.63;;;17.60;;
20454;SDS011;10386;54.314;10.022;2024-03-08T07:43:07;43.00;;;17.63;;
20454;SDS011;10386;54.314;10.022;2024-03-08T07:45:34;48.83;;;18.10;;
20454;SDS011;10386;54.314;10.022;2024-03-08T07:48:04;42.53;;;18.27;;
20454;SDS011;10386;54.314;10.022;2024-03-08T07:50:36;39.00;;;18.50;;
20454;SDS011;10386;54.314;10.022;2024-03-08T07:53:08;39.73;;;17.77;;
20454;SDS011;10386;54.314;10.022;2024-03-08T07:55:36;35.77;;;16.93;;
20454;SDS011;10386;54.314;10.022;2024-03-08T07:58:04;40.10;;;17.47;;
20454;SDS011;10386;54.314;10.022;2024-03-08T08:00:30;46.43;;;17.50;;
20454;SDS011;10386;54.314;10.022;2024-03-08T08:03:03;36.27;;;16.33;;
20454;SDS011;10386;54.314;10.022;2024-03-08T08:05:31;41.47;;;17.03;;
20454;SDS011;10386;54.314;10.022;2024-03-08T08:08:02;35.97;;;16.40;;
20454;SDS011;10386;54.314;10.022;2024-03-08T08:10:33;40.00;;;17.03;;
20454;SDS011;10386;54.314;10.022;2024-03-08T08:12:59;38.30;;;17.40;;
20454;SDS011;10386;54.314;10.022;2024-03-08T08:15:28;34.90;;;16.87;;
20454;SDS011;10386;54.314;10.022;2024-03-08T08:17:55;34.40;;;17.20;;
20454;SDS011;10386;54.314;10.022;2024-03-08T08:20:22;34.87;;;16.10;;
20454;SDS011;10386;54.314;10.022;2024-03-08T08:22:49;40.20;;;17.23;;
20454;SDS011;10386;54.314;10.022;2024-03-08T08:25:16;37.67;;;16.90;;
20454;SDS011;10386;54.314;10.022;2024-03-08T08:27:47;42.37;;;17.47;;
20454;SDS011;10386;54.314;10.022;2024-03-08T08:30:14;38.87;;;17.90;;
20454;SDS011;10386;54.314;10.022;2024-03-08T08:32:40;39.33;;;18.27;;
20454;SDS011;10386;54.314;10.022;2024-03-08T08:35:10;36.70;;;18.30;;
20454;SDS011;10386;54.314;10.022;2024-03-08T08:37:39;35.90;;;17.43;;
20454;SDS011;10386;54.314;10.022;2024-03-08T08:40:06;38.43;;;17.53;;
20454;SDS011;10386;54.314;10.022;2024-03-08T08:42:41;38.77;;;18.60;;
20454;SDS011;10386;54.314;10.022;2024-03-08T08:45:08;39.97;;;18.23;;
20454;SDS011;10386;54.314;10.022;2024-03-08T08:47:43;39.17;;;18.70;;
20454;SDS011;10386;54.314;10.022;2024-03-08T08:50:13;37.73;;;17.83;;
20454;SDS011;10386;54.314;10.022;2024-03-08T08:52:40;38.20;;;18.23;;
20454;SDS011;10386;54.314;10.022;2024-03-08T08:55:10;39.07;;;16.70;;
20454;SDS011;10386;54.314;10.022;2024-03-08T08:57:41;41.60;;;18.63;;
20454;SDS011;10386;54.314;10.022;2024-03-08T09:00:08;44.97;;;19.27;;
20454;SDS011;10386;54.314;10.022;2024-03-08T09:02:41;38.70;;;18.47;;
20454;SDS011;10386;54.314;10.022;2024-03-08T09:05:08;38.63;;;17.43;;
20454;SDS011;10386;54.314;10.022;2024-03-08T09:07:35;37.47;;;16.67;;
20454;SDS011;10386;54.314;10.022;2024-03-08T09:10:02;37.23;;;17.57;;
20454;SDS011;10386;54.314;10.022;2024-03-08T09:12:43;37.50;;;17.27;;
20454;SDS011;10386;54.314;10.022;2024-03-08T09:15:10;34.50;;;17.43;;
20454;SDS011;10386;54.314;10.022;2024-03-08T09:17:40;39.70;;;16.70;;
20454;SDS011;10386;54.314;10.022;2024-03-08T09:20:08;37.37;;;17.57;;
20454;SDS011;10386;54.314;10.022;2024-03-08T09:22:37;40.87;;;17.80;;
20454;SDS011;10386;54.314;10.022;2024-03-08T09:25:04;36.77;;;16.70;;
20454;SDS011;10386;54.314;10.022;2024-03-08T09:27:32;37.50;;;17.27;;
20454;SDS011;10386;54.314;10.022;2024-03-08T09:30:00;36.67;;;17.80;;
20454;SDS011;10386;54.314;10.022;2024-03-08T09:32:27;35.67;;;17.27;;
20454;SDS011;10386;54.314;10.022;2024-03-08T09:34:54;36.00;;;16.13;;
20454;SDS011;10386;54.314;10.022;2024-03-08T09:37:22;35.63;;;16.20;;
20454;SDS011;10386;54.314;10.022;2024-03-08T09:39:49;34.27;;;16.17;;
20454;SDS011;10386;54.314;10.022;2024-03-08T09:42:16;36.83;;;16.80;;
20454;SDS011;10386;54.314;10.022;2024-03-08T09:44:46;38.77;;;16.53;;
20454;SDS011;10386;54.314;10.022;2024-03-08T09:47:14;34.50;;;16.17;;
20454;SDS011;10386;54.314;10.022;2024-03-08T09:49:41;33.97;;;15.43;;
20454;SDS011;10386;54.314;10.022;2024-03-08T09:52:10;36.03;;;16.90;;
20454;SDS011;10386;54.314;10.022;2024-03-08T09:54:38;34.53;;;15.67;;
20454;SDS011;10386;54.314;10.022;2024-03-08T09:57:10;32.83;;;15.40;;
20454;SDS011;10386;54.314;10.022;2024-03-08T09:59:38;37.57;;;16.23;;
20454;SDS011;10386;54.314;10.022;2024-03-08T10:02:04;34.00;;;16.53;;
20454;SDS011;10386;54.314;10.022;2024-03-08T10:04:32;38.77;;;16.23;;
20454;SDS011;10386;54.314;10.022;2024-03-08T10:06:59;36.50;;;16.97;;
20454;SDS011;10386;54.314;10.022;2024-03-08T10:09:28;32.63;;;15.03;;
20454;SDS011;10386;54.314;10.022;2024-03-08T10:11:58;33.60;;;16.03;;
20454;SDS011;10386;54.314;10.022;2024-03-08T10:14:25;31.67;;;14.83;;
20454;SDS011;10386;54.314;10.022;2024-03-08T10:16:55;34.13;;;16.27;;
20454;SDS011;10386;54.314;10.022;2024-03-08T10:19:26;33.53;;;16.43;;
20454;SDS011;10386;54.314;10.022;2024-03-08T10:21:56;35.70;;;15.80;;
20454;SDS011;10386;54.314;10.022;2024-03-08T10:24:25;37.27;;;17.20;;
20454;SDS011;10386;54.314;10.022;2024-03-08T10:26:53;36.33;;;16.90;;
20454;SDS011;10386;54.314;10.022;2024-03-08T10:29:20;33.07;;;16.03;;
20454;SDS011;10386;54.314;10.022;2024-03-08T10:31:47;36.40;;;16.93;;
20454;SDS011;10386;54.314;10.022;2024-03-08T10:34:14;35.63;;;16.63;;
20454;SDS011;10386;54.314;10.022;2024-03-08T10:36:41;40.37;;;17.70;;
20454;SDS011;10386;54.314;10.022;2024-03-08T10:39:12;39.40;;;16.70;;
20454;SDS011;10386;54.314;10.022;2024-03-08T10:41:52;37.53;;;17.33;;
20454;SDS011;10386;54.314;10.022;2024-03-08T10:47:02;37.50;;;16.70;;
20454;SDS011;10386;54.314;10.022;2024-03-08T10:49:38;39.00;;;17.17;;
20454;SDS011;10386;54.314;10.022;2024-03-08T10:52:08;35.13;;;16.97;;
20454;SDS011;10386;54.314;10.022;2024-03-08T10:54:38;36.17;;;15.63;;
20454;SDS011;10386;54.314;10.022;2024-03-08T10:57:12;34.70;;;15.23;;
20454;SDS011;10386;54.314;10.022;2024-03-08T10:59:39;35.33;;;15.60;;
20454;SDS011;10386;54.314;10.022;2024-03-08T11:02:10;33.93;;;14.67;;
20454;SDS011;10386;54.314;10.022;2024-03-08T11:04:38;33.70;;;15.37;;
20454;SDS011;10386;54.314;10.022;2024-03-08T11:07:05;33.93;;;15.23;;
20454;SDS011;10386;54.314;10.022;2024-03-08T11:09:36;30.97;;;14.67;;
20454;SDS011;10386;54.314;10.022;2024-03-08T11:12:20;36.07;;;15.30;;
20454;SDS011;10386;54.314;10.022;2024-03-08T11:14:52;30.87;;;14.37;;
20454;SDS011;10386;54.314;10.022;2024-03-08T11:17:21;31.87;;;14.23;;
20454;SDS011;10386;54.314;10.022;2024-03-08T11:19:57;32.80;;;15.23;;
20454;SDS011;10386;54.314;10.022;2024-03-08T11:22:28;32.13;;;14.57;;
20454;SDS011;10386;54.314;10.022;2024-03-08T11:25:01;34.73;;;13.60;;
20454;SDS011;10386;54.314;10.022;2024-03-08T11:27:29;33.23;;;15.37;;
20454;SDS011;10386;54.314;10.022;2024-03-08T11:30:04;34.40;;;15.37;;
20454;SDS011;10386;54.314;10.022;2024-03-08T11:32:47;31.77;;;15.03;;
20454;SDS011;10386;54.314;10.022;2024-03-08T11:35:18;34.17;;;14.63;;
20454;SDS011;10386;54.314;10.022;2024-03-08T11:37:46;31.33;;;14.77;;
20454;SDS011;10386;54.314;10.022;2024-03-08T11:40:15;29.70;;;13.70;;
20454;SDS011;10386;54.314;10.022;2024-03-08T11:42:46;31.53;;;14.80;;
20454;SDS011;10386;54.314;10.022;2024-03-08T11:45:18;33.77;;;13.77;;
20454;SDS011;10386;54.314;10.022;2024-03-08T11:48:06;32.87;;;15.27;;
20454;SDS011;10386;54.314;10.022;2024-03-08T11:50:33;30.37;;;14.83;;
20454;SDS011;10386;54.314;10.022;2024-03-08T11:53:00;29.00;;;13.93;;
20454;SDS011;10386;54.314;10.022;2024-03-08T11:55:30;28.97;;;13.73;;
20454;SDS011;10386;54.314;10.022;2024-03-08T11:58:02;32.90;;;14.40;;
20454;SDS011;10386;54.314;10.022;2024-03-08T12:00:31;28.90;;;13.47;;
20454;SDS011;10386;54.314;10.022;2024-03-08T12:03:05;31.30;;;14.47;;
20454;SDS011;10386;54.314;10.022;2024-03-08T12:05:33;34.77;;;15.43;;
20454;SDS011;10386;54.314;10.022;2024-03-08T12:08:01;31.80;;;14.40;;
20454;SDS011;10386;54.314;10.022;2024-03-08T12:10:29;32.00;;;14.83;;
20454;SDS011;10386;54.314;10.022;2024-03-08T12:12:57;37.47;;;14.73;;
20454;SDS011;10386;54.314;10.022;2024-03-08T12:15:29;33.17;;;15.17;;
20454;SDS011;10386;54.314;10.022;2024-03-08T12:17:59;29.20;;;15.27;;
20454;SDS011;10386;54.314;10.022;2024-03-08T12:20:28;32.43;;;14.27;;
20454;SDS011;10386;54.314;10.022;2024-03-08T12:22:58;33.80;;;14.47;;
20454;SDS011;10386;54.314;10.022;2024-03-08T12:25:30;37.67;;;15.93;;
20454;SDS011;10386;54.314;10.022;2024-03-08T12:28:08;31.27;;;14.03;;
20454;SDS011;10386;54.314;10.022;2024-03-08T12:30:47;30.93;;;14.10;;
20454;SDS011;10386;54.314;10.022;2024-03-08T12:33:16;33.17;;;14.07;;
20454;SDS011;10386;54.314;10.022;2024-03-08T12:35:50;31.10;;;14.87;;
20454;SDS011;10386;54.314;10.022;2024-03-08T12:38:20;33.40;;;15.67;;
20454;SDS011;10386;54.314;10.022;2024-03-08T12:40:58;33.33;;;14.70;;
20454;SDS011;10386;54.314;10.022;2024-03-08T12:43:26;29.73;;;13.53;;
20454;SDS011;10386;54.314;10.022;2024-03-08T12:45:56;29.03;;;13.93;;
20454;SDS011;10386;54.314;10.022;2024-03-08T12:48:23;34.40;;;14.67;;
20454;SDS011;10386;54.314;10.022;2024-03-08T12:50:51;31.20;;;14.23;;
20454;SDS011;10386;54.314;10.022;2024-03-08T12:53:18;34.17;;;14.77;;
20454;SDS011;10386;54.314;10.022;2024-03-08T12:55:45;31.13;;;14.67;;
20454;SDS011;10386;54.314;10.022;2024-03-08T12:58:12;30.30;;;14.37;;
20454;SDS011;10386;54.314;10.022;2024-03-08T13:00:39;33.73;;;14.80;;
20454;SDS011;10386;54.314;10.022;2024-03-08T13:03:09;31.17;;;14.67;;
20454;SDS011;10386;54.314;10.022;2024-03-08T13:05:38;31.23;;;14.23;;
20454;SDS011;10386;54.314;10.022;2024-03-08T13:08:09;34.60;;;14.97;;
20454;SDS011;10386;54.314;10.022;2024-03-08T13:10:39;33.03;;;14.50;;
20454;SDS011;10386;54.314;10.022;2024-03-08T13:13:06;31.63;;;14.83;;
20454;SDS011;10386;54.314;10.022;2024-03-08T13:15:33;33.47;;;14.87;;
20454;SDS011;10386;54.314;10.022;2024-03-08T13:18:00;31.17;;;14.70;;
20454;SDS011;10386;54.314;10.022;2024-03-08T13:20:27;38.33;;;16.10;;
20454;SDS011;10386;54.314;10.022;2024-03-08T13:23:06;29.60;;;14.63;;
20454;SDS011;10386;54.314;10.022;2024-03-08T13:25:35;30.87;;;15.00;;
20454;SDS011;10386;54.314;10.022;2024-03-08T13:28:05;35.10;;;16.53;;
20454;SDS011;10386;54.314;10.022;2024-03-08T13:30:33;33.37;;;15.53;;
20454;SDS011;10386;54.314;10.022;2024-03-08T13:33:00;33.63;;;15.80;;
20454;SDS011;10386;54.314;10.022;2024-03-08T13:35:27;37.03;;;16.10;;
20454;SDS011;10386;54.314;10.022;2024-03-08T13:37:56;38.30;;;17.10;;
20454;SDS011;10386;54.314;10.022;2024-03-08T13:40:23;33.50;;;16.43;;
20454;SDS011;10386;54.314;10.022;2024-03-08T13:42:50;36.93;;;15.97;;
20454;SDS011;10386;54.314;10.022;2024-03-08T13:45:17;39.70;;;15.80;;
20454;SDS011;10386;54.314;10.022;2024-03-08T13:47:49;35.27;;;14.53;;
20454;SDS011;10386;54.314;10.022;2024-03-08T13:50:18;32.37;;;14.60;;
20454;SDS011;10386;54.314;10.022;2024-03-08T13:52:49;36.70;;;15.40;;
20454;SDS011;10386;54.314;10.022;2024-03-08T13:55:20;39.33;;;16.53;;
20454;SDS011;10386;54.314;10.022;2024-03-08T13:57:48;32.00;;;16.13;;
20454;SDS011;10386;54.314;10.022;2024-03-08T14:00:16;35.63;;;16.47;;
20454;SDS011;10386;54.314;10.022;2024-03-08T14:02:43;34.47;;;15.73;;
20454;SDS011;10386;54.314;10.022;2024-03-08T14:05:10;40.13;;;17.30;;
20454;SDS011;10386;54.314;10.022;2024-03-08T14:07:38;39.07;;;17.77;;
20454;SDS011;10386;54.314;10.022;2024-03-08T14:10:05;36.73;;;16.53;;
20454;SDS011;10386;54.314;10.022;2024-03-08T14:12:33;37.83;;;16.67;;
20454;SDS011;10386;54.314;10.022;2024-03-08T14:15:01;36.97;;;15.87;;
20454;SDS011;10386;54.314;10.022;2024-03-08T14:17:30;37.13;;;17.63;;
20454;SDS011;10386;54.314;10.022;2024-03-08T14:19:57;33.63;;;14.30;;
20454;SDS011;10386;54.314;10.022;2024-03-08T14:22:25;35.57;;;16.77;;
20454;SDS011;10386;54.314;10.022;2024-03-08T14:24:52;39.43;;;16.83;;